createdAt,value
2018-07-19T00:00:06.532Z,4.33
2018-07-19T00:02:35.112Z,4.57
2018-07-19T00:05:03.848Z,4.43
2018-07-19T00:07:32.206Z,4.33
2018-07-19T00:10:00.649Z,4.40
2018-07-19T00:12:30.018Z,4.40
2018-07-19T00:14:58.294Z,4.73
2018-07-19T00:17:26.813Z,4.67
2018-07-19T00:19:55.374Z,4.50
2018-07-19T00:22:23.680Z,4.70
2018-07-19T00:24:51.954Z,4.70
2018-07-19T00:27:20.373Z,4.50
2018-07-19T00:29:48.642Z,4.43
2018-07-19T00:32:16.963Z,4.43
2018-07-19T00:34:45.935Z,4.63
2018-07-19T00:37:14.321Z,4.60
2018-07-19T00:39:42.608Z,4.77
2018-07-19T00:42:10.995Z,4.00
2018-07-19T00:44:40.186Z,4.47
2018-07-19T00:47:08.966Z,4.43
2018-07-19T00:49:38.066Z,4.67
2018-07-19T00:52:06.869Z,4.30
2018-07-19T00:54:35.147Z,4.47
2018-07-19T00:57:03.533Z,4.20
2018-07-19T00:59:31.897Z,4.70
2018-07-19T01:02:00.201Z,4.90
2018-07-19T01:04:28.502Z,4.70
2018-07-19T01:06:57.354Z,4.37
2018-07-19T01:09:25.626Z,4.80
2018-07-19T01:11:53.893Z,4.70
2018-07-19T01:14:22.526Z,5.00
2018-07-19T01:16:51.093Z,4.47
2018-07-19T01:19:20.199Z,4.77
2018-07-19T01:21:48.543Z,4.67
2018-07-19T01:24:16.834Z,4.20
2018-07-19T01:26:45.122Z,4.60
2018-07-19T01:29:13.409Z,4.50
2018-07-19T01:31:41.679Z,4.63
2018-07-19T01:34:09.970Z,5.30
2018-07-19T01:36:38.249Z,4.67
2018-07-19T01:39:08.430Z,4.30
2018-07-19T01:42:44.169Z,4.97
2018-07-19T01:45:13.308Z,4.27
2018-07-19T01:47:42.538Z,4.50
2018-07-19T01:50:11.582Z,4.60
2018-07-19T01:52:39.826Z,4.57
2018-07-19T01:55:08.602Z,4.40
2018-07-19T01:57:38.164Z,4.60
2018-07-19T02:00:06.891Z,4.80
2018-07-19T02:02:35.130Z,4.67
2018-07-19T02:05:03.428Z,4.70
2018-07-19T02:07:31.726Z,4.80
2018-07-19T02:09:59.950Z,5.07
2018-07-19T02:12:28.206Z,5.30
2018-07-19T02:14:56.842Z,4.90
2018-07-19T02:17:25.157Z,4.70
2018-07-19T02:19:53.193Z,4.80
2018-07-19T02:22:21.510Z,5.00
2018-07-19T02:24:49.822Z,5.30
2018-07-19T02:27:18.972Z,5.30
2018-07-19T02:29:48.445Z,5.47
2018-07-19T02:32:17.125Z,4.70
2018-07-19T02:34:46.554Z,5.70
2018-07-19T02:37:16.458Z,5.27
2018-07-19T02:39:44.901Z,5.63
2018-07-19T02:42:13.662Z,5.40
2018-07-19T02:44:41.985Z,5.23
2018-07-19T02:47:11.485Z,5.07
2018-07-19T02:49:39.730Z,4.80
2018-07-19T02:52:08.614Z,4.60
2018-07-19T02:54:37.774Z,4.83
2018-07-19T02:57:12.716Z,4.87
2018-07-19T02:59:41.369Z,4.90
2018-07-19T03:02:09.805Z,5.00
2018-07-19T03:04:38.010Z,5.10
2018-07-19T03:07:06.302Z,5.03
2018-07-19T03:09:34.592Z,5.37
2018-07-19T03:12:02.879Z,4.90
2018-07-19T03:14:31.213Z,5.03
2018-07-19T03:16:59.493Z,5.17
2018-07-19T03:19:28.426Z,5.17
2018-07-19T03:21:56.715Z,5.07
2018-07-19T03:24:24.970Z,5.20
2018-07-19T03:26:54.543Z,5.60
2018-07-19T03:29:24.070Z,5.73
2018-07-19T03:31:52.393Z,5.40
2018-07-19T03:34:20.621Z,5.40
2018-07-19T03:36:48.898Z,5.43
2018-07-19T03:39:17.154Z,5.73
2018-07-19T03:41:45.453Z,5.27
2018-07-19T03:44:13.721Z,5.07
2018-07-19T03:46:42.000Z,5.57
2018-07-19T03:49:10.249Z,5.37
2018-07-19T03:51:39.514Z,5.63
2018-07-19T03:54:08.649Z,6.20
2018-07-19T03:56:38.347Z,5.87
2018-07-19T03:59:06.607Z,5.37
2018-07-19T04:01:34.878Z,5.43
2018-07-19T04:04:03.155Z,5.90
2018-07-19T04:06:31.522Z,5.37
2018-07-19T04:08:59.794Z,5.63
2018-07-19T04:11:28.065Z,5.37
2018-07-19T04:13:56.359Z,5.43
2018-07-19T04:16:24.613Z,5.40
2018-07-19T04:18:52.850Z,5.63
2018-07-19T04:21:21.109Z,5.53
2018-07-19T04:23:49.385Z,5.63
2018-07-19T04:26:17.697Z,5.60
2018-07-19T04:28:45.983Z,5.70
2018-07-19T04:31:14.253Z,5.57
2018-07-19T04:33:42.526Z,5.60
2018-07-19T04:36:10.805Z,5.50
2018-07-19T04:38:39.129Z,5.63
2018-07-19T04:41:07.427Z,5.47
2018-07-19T04:43:36.326Z,5.77
2018-07-19T04:46:05.425Z,5.67
2018-07-19T04:48:34.093Z,5.97
2018-07-19T04:51:02.426Z,5.93
2018-07-19T04:53:30.711Z,5.70
2018-07-19T04:55:58.990Z,5.63
2018-07-19T04:58:28.330Z,5.90
2018-07-19T05:00:58.724Z,5.57
2018-07-19T05:03:27.357Z,5.27
2018-07-19T05:05:55.634Z,5.23
2018-07-19T05:08:24.991Z,5.67
2018-07-19T05:10:53.569Z,5.50
2018-07-19T05:13:23.121Z,5.73
2018-07-19T05:15:52.392Z,5.17
2018-07-19T05:18:20.665Z,5.30
2018-07-19T05:20:48.933Z,4.97
2018-07-19T05:23:17.270Z,4.90
2018-07-19T05:25:45.523Z,5.50
2018-07-19T05:28:14.688Z,5.20
2018-07-19T05:30:42.969Z,5.13
2018-07-19T05:33:11.971Z,5.20
2018-07-19T05:35:40.325Z,5.07
2018-07-19T05:38:08.655Z,5.20
2018-07-19T05:40:36.984Z,5.20
2018-07-19T05:43:05.731Z,5.13
2018-07-19T05:45:34.090Z,5.20
2018-07-19T05:48:02.412Z,5.20
2018-07-19T05:50:31.051Z,4.70
2018-07-19T05:53:00.356Z,4.67
2018-07-19T05:55:30.099Z,4.30
2018-07-19T05:57:58.209Z,4.23
2018-07-19T06:00:26.474Z,4.47
2018-07-19T06:02:54.802Z,4.73
2018-07-19T06:05:25.156Z,3.83
2018-07-19T06:07:55.538Z,3.70
2018-07-19T06:10:24.066Z,3.80
2018-07-19T06:12:52.431Z,3.70
2018-07-19T06:15:20.701Z,3.43
2018-07-19T06:17:49.046Z,3.43
2018-07-19T06:20:17.342Z,3.30
2018-07-19T06:22:45.674Z,3.50
2018-07-19T06:25:14.007Z,3.50
2018-07-19T06:27:43.293Z,3.63
2018-07-19T06:30:11.618Z,3.17
2018-07-19T06:32:39.935Z,3.43
2018-07-19T06:35:08.214Z,3.20
2018-07-19T06:37:36.530Z,3.57
2018-07-19T06:40:05.000Z,3.10
2018-07-19T06:42:33.333Z,3.70
2018-07-19T06:45:01.678Z,3.47
2018-07-19T06:47:29.971Z,3.00
2018-07-19T06:49:58.277Z,3.27
2018-07-19T06:52:26.651Z,3.27
2018-07-19T06:54:54.909Z,3.00
2018-07-19T06:57:23.205Z,3.13
2018-07-19T06:59:51.463Z,3.17
2018-07-19T07:02:19.786Z,3.00
2018-07-19T07:04:48.047Z,3.03
2018-07-19T07:07:19.210Z,3.00
2018-07-19T07:09:47.241Z,3.10
2018-07-19T07:12:16.917Z,3.10
2018-07-19T07:14:45.214Z,3.20
2018-07-19T07:17:13.950Z,2.80
2018-07-19T07:19:42.865Z,3.10
2018-07-19T07:22:11.855Z,2.87
2018-07-19T07:24:39.876Z,3.10
2018-07-19T07:27:09.903Z,2.70
2018-07-19T07:29:39.394Z,2.70
2018-07-19T07:32:08.179Z,3.00
2018-07-19T07:34:37.043Z,2.90
2018-07-19T07:37:06.062Z,2.70
2018-07-19T07:39:35.503Z,2.50
2018-07-19T07:42:03.827Z,2.70
2018-07-19T07:44:32.098Z,3.20
2018-07-19T07:47:00.359Z,2.97
2018-07-19T07:49:28.653Z,2.70
2018-07-19T07:51:57.359Z,2.80
2018-07-19T07:54:25.621Z,2.40
2018-07-19T07:56:53.917Z,2.50
2018-07-19T07:59:22.270Z,2.80
2018-07-19T08:01:50.466Z,2.63
2018-07-19T08:04:18.745Z,2.47
2018-07-19T08:06:48.416Z,2.80
2018-07-19T08:09:18.033Z,2.50
2018-07-19T08:11:46.501Z,2.50
2018-07-19T08:14:15.174Z,2.70
2018-07-19T08:16:44.339Z,2.67
2018-07-19T08:19:12.758Z,2.50
2018-07-19T08:21:42.249Z,2.77
2018-07-19T08:24:10.510Z,2.77
2018-07-19T08:26:39.001Z,2.33
2018-07-19T08:29:07.649Z,2.93
2018-07-19T08:31:36.033Z,2.50
2018-07-19T08:34:04.378Z,2.50
2018-07-19T08:36:32.663Z,2.57
2018-07-19T08:39:00.984Z,2.80
2018-07-19T08:41:29.268Z,2.73
2018-07-19T08:43:57.614Z,3.08
2018-07-19T08:46:25.902Z,2.87
2018-07-19T08:48:54.199Z,2.60
2018-07-19T08:51:22.480Z,2.77
2018-07-19T08:53:50.774Z,2.72
2018-07-19T08:56:19.740Z,2.98
2018-07-19T08:58:48.229Z,2.65
2018-07-19T09:01:17.121Z,2.90
2018-07-19T09:03:45.417Z,2.70
2018-07-19T09:06:13.718Z,2.80
2018-07-19T09:08:42.060Z,2.83
2018-07-19T09:11:10.833Z,2.80
2018-07-19T09:13:39.396Z,2.70
2018-07-19T09:16:07.691Z,2.50
2018-07-19T09:18:35.978Z,2.50
2018-07-19T09:21:04.294Z,2.98
2018-07-19T09:23:32.586Z,3.00
2018-07-19T09:26:00.882Z,2.90
2018-07-19T09:28:29.198Z,3.17
2018-07-19T09:30:57.483Z,3.10
2018-07-19T09:33:25.769Z,2.77
2018-07-19T09:35:54.053Z,2.87
2018-07-19T09:38:22.873Z,3.10
2018-07-19T09:40:51.165Z,3.00
2018-07-19T09:43:19.435Z,3.20
2018-07-19T09:45:47.737Z,3.12
2018-07-19T09:48:16.034Z,3.42
2018-07-19T09:50:44.357Z,2.90
2018-07-19T09:53:12.633Z,2.80
2018-07-19T09:55:40.943Z,3.80
2018-07-19T09:58:09.275Z,3.00
2018-07-19T10:00:43.083Z,3.22
2018-07-19T10:03:11.383Z,3.05
2018-07-19T10:05:39.706Z,3.05
2018-07-19T10:08:08.397Z,3.52
2018-07-19T10:10:37.086Z,2.83
2018-07-19T10:13:05.912Z,3.27
2018-07-19T10:15:35.035Z,2.90
2018-07-19T10:18:03.387Z,2.77
2018-07-19T10:20:31.689Z,3.42
2018-07-19T10:22:59.973Z,3.25
2018-07-19T10:25:27.993Z,3.37
2018-07-19T10:27:56.249Z,3.10
2018-07-19T10:30:24.959Z,3.58
2018-07-19T10:32:53.759Z,2.83
2018-07-19T10:35:22.030Z,3.10
2018-07-19T10:37:50.277Z,3.40
2018-07-19T10:40:18.558Z,3.15
2018-07-19T10:42:46.922Z,3.40
2018-07-19T10:45:15.244Z,3.05
2018-07-19T10:47:43.509Z,3.65
2018-07-19T10:50:11.837Z,3.20
2018-07-19T10:52:40.067Z,3.08
2018-07-19T10:55:08.317Z,3.07
2018-07-19T10:57:36.579Z,3.23
2018-07-19T11:00:05.197Z,3.17
2018-07-19T11:02:33.502Z,3.40
2018-07-19T11:05:01.883Z,2.80
2018-07-19T11:07:30.253Z,3.13
2018-07-19T11:09:58.879Z,3.20
2018-07-19T11:12:27.875Z,3.30
2018-07-19T11:14:56.174Z,3.20
2018-07-19T11:17:24.441Z,3.53
2018-07-19T11:19:52.679Z,3.20
2018-07-19T11:22:20.961Z,3.13
2018-07-19T11:24:50.051Z,3.40
2018-07-19T11:27:18.747Z,3.70
2018-07-19T11:29:47.065Z,2.97
2018-07-19T11:32:15.314Z,3.17
2018-07-19T11:34:43.608Z,3.60
2018-07-19T11:37:11.861Z,3.40
2018-07-19T11:39:40.115Z,3.40
2018-07-19T11:42:08.529Z,3.27
2018-07-19T11:44:37.322Z,3.30
2018-07-19T11:47:05.325Z,3.00
2018-07-19T11:49:33.559Z,3.20
2018-07-19T11:52:01.855Z,3.30
2018-07-19T11:54:30.113Z,3.47
2018-07-19T11:56:58.701Z,3.10
2018-07-19T11:59:27.260Z,3.43
2018-07-19T12:01:55.934Z,3.10
2018-07-19T12:04:24.838Z,3.57
2018-07-19T12:06:53.138Z,3.17
2018-07-19T12:09:21.398Z,3.03
2018-07-19T12:11:49.654Z,3.50
2018-07-19T12:14:17.894Z,3.17
2018-07-19T12:16:46.778Z,3.47
2018-07-19T12:19:15.057Z,2.90
2018-07-19T12:21:43.317Z,3.60
2018-07-19T12:24:11.586Z,3.30
2018-07-19T12:26:39.883Z,3.20
2018-07-19T12:29:08.137Z,3.20
2018-07-19T12:31:37.232Z,2.83
2018-07-19T12:34:05.679Z,3.23
2018-07-19T12:36:33.952Z,3.10
2018-07-19T12:39:02.227Z,3.27
2018-07-19T12:41:30.512Z,3.13
2018-07-19T12:43:58.811Z,3.40
2018-07-19T12:46:27.790Z,3.27
2018-07-19T12:48:57.014Z,3.30
2018-07-19T12:51:25.253Z,3.27
2018-07-19T12:53:53.542Z,3.10
2018-07-19T12:56:21.881Z,3.30
2018-07-19T12:58:50.532Z,3.10
2018-07-19T13:01:18.841Z,3.40
2018-07-19T13:03:47.141Z,3.20
2018-07-19T13:06:15.614Z,3.10
2018-07-19T13:08:43.913Z,3.40
2018-07-19T13:11:12.193Z,3.40
2018-07-19T13:13:40.509Z,3.10
2018-07-19T13:16:08.785Z,2.93
2018-07-19T13:18:37.118Z,3.10
2018-07-19T13:21:05.382Z,3.40
2018-07-19T13:23:33.687Z,3.30
2018-07-19T13:26:03.373Z,3.03
2018-07-19T13:28:32.860Z,3.23
2018-07-19T13:31:01.568Z,3.33
2018-07-19T13:33:29.986Z,3.00
2018-07-19T13:35:58.277Z,2.90
2018-07-19T13:38:26.575Z,3.23
2018-07-19T13:40:54.876Z,3.00
2018-07-19T13:43:24.768Z,3.10
2018-07-19T13:45:54.525Z,3.50
2018-07-19T13:48:22.867Z,3.80
2018-07-19T13:50:51.154Z,3.40
2018-07-19T13:53:40.887Z,3.43
2018-07-19T13:56:09.669Z,3.20
2018-07-19T13:58:38.566Z,3.50
2018-07-19T14:01:06.936Z,3.27
2018-07-19T14:03:35.267Z,3.17
2018-07-19T14:06:05.245Z,3.27
2018-07-19T14:08:33.849Z,3.33
2018-07-19T14:11:02.802Z,3.20
2018-07-19T14:13:31.110Z,2.97
2018-07-19T14:15:59.415Z,3.47
2018-07-19T14:18:30.031Z,3.10
2018-07-19T14:20:58.331Z,3.23
2018-07-19T14:23:26.399Z,3.47
2018-07-19T14:25:54.702Z,3.47
2018-07-19T14:28:23.767Z,3.30
2018-07-19T14:30:52.014Z,3.20
2018-07-19T14:33:20.270Z,3.30
2018-07-19T14:35:48.519Z,3.40
2018-07-19T14:38:16.793Z,3.27
2018-07-19T14:40:45.040Z,3.20
2018-07-19T14:43:13.346Z,3.40
2018-07-19T14:45:41.595Z,3.40
2018-07-19T14:48:09.897Z,3.13
2018-07-19T14:50:39.267Z,3.47
2018-07-19T14:53:07.582Z,3.00
2018-07-19T14:55:35.908Z,3.03
2018-07-19T14:58:04.416Z,3.10
2018-07-19T15:00:33.590Z,3.40
2018-07-19T15:03:02.920Z,3.27
2018-07-19T15:05:31.783Z,3.10
2018-07-19T15:08:00.142Z,3.30
2018-07-19T15:10:28.411Z,3.00
2018-07-19T15:12:56.789Z,3.30
2018-07-19T15:15:25.125Z,3.20
2018-07-19T15:17:53.336Z,3.20
2018-07-19T15:20:21.598Z,3.30
2018-07-19T15:22:50.442Z,3.30
2018-07-19T15:25:21.487Z,3.47
2018-07-19T15:27:49.732Z,3.17
2018-07-19T15:30:18.018Z,3.10
2018-07-19T15:32:46.263Z,3.27
2018-07-19T15:35:14.593Z,3.00
2018-07-19T15:37:42.870Z,3.03
2018-07-19T15:40:11.211Z,3.43
2018-07-19T15:42:39.458Z,3.30
2018-07-19T15:45:09.149Z,3.30
2018-07-19T15:47:38.556Z,3.50
2018-07-19T15:50:07.436Z,3.37
2018-07-19T15:52:35.866Z,3.20
2018-07-19T15:55:04.326Z,3.10
2018-07-19T15:57:32.565Z,3.27
2018-07-19T16:00:00.958Z,3.20
2018-07-19T16:02:30.842Z,3.50
2018-07-19T16:05:01.164Z,3.33
2018-07-19T16:07:29.390Z,3.37
2018-07-19T16:09:57.669Z,3.50
2018-07-19T16:12:26.584Z,3.20
2018-07-19T16:14:55.339Z,3.33
2018-07-19T16:17:23.597Z,3.50
2018-07-19T16:19:51.861Z,3.67
2018-07-19T16:22:20.465Z,3.63
2018-07-19T16:24:49.538Z,3.53
2018-07-19T16:27:17.961Z,3.50
2018-07-19T16:29:46.739Z,3.10
2018-07-19T16:32:15.817Z,3.77
2018-07-19T16:34:44.162Z,3.30
2018-07-19T16:37:12.427Z,3.60
2018-07-19T16:39:40.705Z,3.37
2018-07-19T16:42:09.012Z,3.50
2018-07-19T16:44:37.355Z,3.27
2018-07-19T16:47:05.674Z,3.30
2018-07-19T16:49:33.959Z,3.60
2018-07-19T16:52:02.278Z,3.67
2018-07-19T16:54:31.120Z,3.43
2018-07-19T16:56:59.517Z,3.47
2018-07-19T16:59:27.853Z,3.50
2018-07-19T17:01:56.795Z,3.40
2018-07-19T17:04:25.071Z,3.50
2018-07-19T17:06:53.352Z,3.50
2018-07-19T17:09:23.091Z,3.40
2018-07-19T17:11:52.772Z,3.30
2018-07-19T17:14:22.762Z,3.20
2018-07-19T17:16:51.410Z,3.50
2018-07-19T17:19:20.664Z,3.40
2018-07-19T17:21:48.934Z,3.57
2018-07-19T17:24:17.739Z,3.50
2018-07-19T17:26:48.513Z,3.57
2018-07-19T17:29:17.381Z,3.50
2018-07-19T17:31:47.580Z,3.50
2018-07-19T17:34:16.064Z,3.53
2018-07-19T17:36:44.310Z,3.50
2018-07-19T17:39:13.063Z,3.87
2018-07-19T17:41:42.041Z,3.63
2018-07-19T17:44:10.362Z,3.73
2018-07-19T17:46:38.670Z,3.40
2018-07-19T17:49:07.295Z,3.60
2018-07-19T17:51:35.547Z,3.50
2018-07-19T17:54:03.853Z,3.60
2018-07-19T17:56:32.204Z,3.33
2018-07-19T17:59:01.087Z,3.40
2018-07-19T18:01:29.380Z,3.77
2018-07-19T18:03:57.750Z,3.37
2018-07-19T18:06:27.671Z,3.50
2018-07-19T18:08:56.722Z,3.57
2018-07-19T18:11:26.254Z,3.47
2018-07-19T18:13:54.634Z,3.40
2018-07-19T18:16:23.028Z,3.33
2018-07-19T18:18:51.426Z,3.80
2018-07-19T18:21:20.663Z,3.30
2018-07-19T18:23:49.302Z,3.57
2018-07-19T18:26:17.353Z,3.43
2018-07-19T18:28:45.629Z,3.33
2018-07-19T18:31:13.913Z,3.67
2018-07-19T18:33:42.215Z,3.50
2018-07-19T18:36:10.499Z,3.40
2018-07-19T18:38:38.811Z,3.70
2018-07-19T18:41:07.135Z,3.47
2018-07-19T18:43:35.506Z,3.67
2018-07-19T18:46:03.542Z,3.73
2018-07-19T18:48:33.339Z,3.60
2018-07-19T18:51:01.936Z,3.90
2018-07-19T18:53:30.198Z,3.70
2018-07-19T18:55:59.126Z,3.60
2018-07-19T18:58:27.583Z,3.93
2018-07-19T19:00:55.929Z,3.80
2018-07-19T19:03:24.837Z,3.63
2018-07-19T19:05:53.144Z,3.70
2018-07-19T19:08:21.439Z,4.03
2018-07-19T19:10:50.738Z,4.00
2018-07-19T19:13:19.006Z,3.60
2018-07-19T19:15:47.933Z,3.70
2018-07-19T19:18:15.941Z,4.30
2018-07-19T19:20:44.413Z,4.10
2018-07-19T19:23:13.926Z,4.00
2018-07-19T19:25:42.660Z,4.10
2018-07-19T19:28:11.529Z,4.40
2018-07-19T19:30:39.884Z,4.17
2018-07-19T19:33:08.136Z,4.50
2018-07-19T19:35:36.401Z,5.20
2018-07-19T19:38:04.390Z,4.77
2018-07-19T19:40:33.006Z,10.37
2018-07-19T19:43:01.841Z,13.87
2018-07-19T19:45:30.151Z,8.03
2018-07-19T19:47:58.429Z,9.87
2018-07-19T19:50:27.505Z,11.90
2018-07-19T19:52:55.805Z,9.77
2018-07-19T19:55:25.042Z,6.73
2018-07-19T19:57:53.680Z,4.57
2018-07-19T20:00:22.367Z,4.83
2018-07-19T20:02:50.673Z,10.87
2018-07-19T20:05:18.925Z,7.87
2018-07-19T20:07:47.213Z,11.37
2018-07-19T20:10:15.536Z,10.97
2018-07-19T20:12:44.521Z,4.77
2018-07-19T20:15:12.810Z,4.47
2018-07-19T20:17:41.595Z,4.70
2018-07-19T20:20:10.470Z,4.73
2018-07-19T20:22:38.709Z,5.10
2018-07-19T20:25:07.290Z,5.40
2018-07-19T20:27:35.594Z,4.93
2018-07-19T20:30:04.877Z,4.70
2018-07-19T20:32:33.137Z,4.57
2018-07-19T20:35:01.375Z,4.70
2018-07-19T20:37:29.619Z,4.03
2018-07-19T20:39:57.994Z,4.13
2018-07-19T20:42:26.329Z,4.57
2018-07-19T20:44:54.969Z,4.20
2018-07-19T20:47:23.954Z,4.60
2018-07-19T20:49:52.262Z,4.27
2018-07-19T20:52:20.958Z,4.27
2018-07-19T20:54:50.264Z,4.43
2018-07-19T20:57:18.522Z,4.20
2018-07-19T20:59:47.893Z,4.40
2018-07-19T21:02:17.784Z,4.43
2018-07-19T21:04:46.005Z,4.50
2018-07-19T21:07:14.298Z,4.43
2018-07-19T21:09:43.006Z,4.50
2018-07-19T21:12:11.933Z,4.47
2018-07-19T21:14:40.160Z,4.67
2018-07-19T21:17:08.618Z,4.43
2018-07-19T21:19:37.536Z,4.30
2018-07-19T21:22:05.890Z,4.27
2018-07-19T21:24:34.150Z,4.57
2018-07-19T21:27:02.429Z,4.63
2018-07-19T21:29:30.796Z,4.40
2018-07-19T21:31:59.074Z,4.40
2018-07-19T21:34:27.329Z,4.63
2018-07-19T21:36:55.601Z,4.27
2018-07-19T21:39:23.873Z,4.33
2018-07-19T21:41:52.121Z,4.60
2018-07-19T21:44:20.397Z,4.00
2018-07-19T21:46:49.494Z,4.30
2018-07-19T21:49:17.770Z,4.13
2018-07-19T21:51:46.062Z,4.13
2018-07-19T21:54:14.321Z,3.90
2018-07-19T21:56:42.602Z,4.27
2018-07-19T21:59:10.869Z,4.40
2018-07-19T22:01:46.026Z,4.43
2018-07-19T22:04:15.458Z,4.23
2018-07-19T22:06:44.011Z,4.03
2018-07-19T22:09:13.202Z,3.93
2018-07-19T22:11:41.942Z,4.03
2018-07-19T22:14:10.272Z,4.63
2018-07-19T22:16:40.480Z,4.13
2018-07-19T22:19:09.377Z,4.37
2018-07-19T22:21:37.633Z,3.90
2018-07-19T22:24:05.882Z,3.90
2018-07-19T22:26:34.197Z,4.30
2018-07-19T22:29:02.458Z,4.50
2018-07-19T22:31:30.466Z,4.10
2018-07-19T22:33:59.694Z,3.83
2018-07-19T22:36:28.006Z,4.37
2018-07-19T22:38:56.612Z,4.03
2018-07-19T22:41:25.627Z,4.07
2018-07-19T22:43:53.993Z,4.37
2018-07-19T22:46:22.621Z,4.20
2018-07-19T22:48:55.201Z,4.10
2018-07-19T22:51:25.310Z,4.10
2018-07-19T22:53:54.869Z,4.37
2018-07-19T22:56:23.254Z,4.30
2018-07-19T22:58:51.691Z,4.70
2018-07-19T23:01:20.385Z,4.57
2018-07-19T23:03:48.683Z,4.27
2018-07-19T23:06:17.104Z,4.10
2018-07-19T23:08:46.726Z,4.10
2018-07-19T23:11:15.090Z,4.37
2018-07-19T23:13:44.304Z,4.27
2018-07-19T23:16:12.526Z,4.33
2018-07-19T23:18:40.783Z,4.43
2018-07-19T23:21:09.030Z,4.47
2018-07-19T23:23:37.394Z,4.20
2018-07-19T23:26:07.195Z,4.17
2018-07-19T23:28:35.913Z,4.50
2018-07-19T23:31:04.297Z,4.50
2018-07-19T23:33:32.667Z,4.27
2018-07-19T23:36:06.621Z,4.50
2018-07-19T23:38:41.866Z,4.47
2018-07-19T23:41:14.298Z,4.40
2018-07-19T23:43:45.171Z,4.50
2018-07-19T23:47:16.932Z,4.70
2018-07-19T23:49:45.163Z,4.70
2018-07-19T23:52:13.390Z,4.83
2018-07-19T23:54:42.281Z,4.60
2018-07-19T23:57:11.301Z,4.93
2018-07-19T23:59:40.014Z,4.70
